AirNav  
 
airports navaids fix Aviation Fuel pilotshop
 1636 users online  

3N7 Pemberton Airport
Pemberton, New Jersey, USA

GOING TO PEMBERTON?

Reserve a HOTEL Rent a CARRent from ENTERPRISE

FAA INFORMATION EFFECTIVE 08 JUNE 2006

Location

FAA Identifier: 3N7
Lat/Long: 39-58-55.4060N / 074-41-33.5720W
39-58.923433N / 074-41.559533W
39.9820572 / -74.6926589
(estimated)
Elevation: 65 ft. / 20 m (estimated)
Variation: 12W (1985)
From city: 1 mile NW of PEMBERTON, NJ
Zip code: 08068

Airport Operations

Airport use: Open to the public
Sectional chart: WASHINGTON
Control tower: no
ARTCC: NEW YORK CENTER
FSS: MILLVILLE FLIGHT SERVICE STATION [1-866-225-7920]
NOTAMs facility: MIV (NOTAM-D service available)
Attendance: DAYLIGHT HOURS
Wind indicator: yes
Segmented circle: no

Airport Communications

CTAF: 122.9
WX ASOS at VAY (7 nm W): 119.325 (609-267-1176)
WX ASOS at PNE (16 nm W): PHONE 215-677-0146
WX AWOS at NEL (16 nm E): PHONE 732-323-7109
WX ASOS at TTN (19 nm N): 133.70 (609-538-8690)
WX AWOS-3 at MJX (19 nm E): 119.875 (732-244-4450)

Nearby radio navigation aids

VOR radial/distance  VOR name  Freq  Var
GXUr261/4.7MC GUIRE VORTAC110.6011W
CYNr319/15.6COYLE VORTAC113.4010W
PNEr122/(15.7)NORTH PHILADELPHIA VOR112.0010W
RBVr224/16.0ROBBINSVILLE VORTAC113.8010W
ARDr159/19.0YARDLEY VOR/DME108.2010W
VCNr035/29.5CEDAR LAKE VORTAC115.2010W
COLr242/31.4COLTS NECK VOR/DME115.4011W
ACYr000/32.0ATLANTIC CITY VORTAC108.6010W
OODr064/35.0WOODSTOWN VORTAC112.8010W
SBJr186/36.1SOLBERG VOR/DME112.9010W
CKZr144/36.7PENNRIDGE VOR/DME108.8512W

 
NDB name  Hdg/Dist  Freq  Var  ID
LAKEHURST270/16.839613WNEL -. . .-..
WILLOW GROVE133/24.238812WNXX -. -..- -..-
AMBLER119/28.527511WING .. -. --.
DOYLESTOWN147/28.923710WDYL -.. -.-- .-..
QUAKERTOWN146/38.420812WUKT ..- -.- -
RAINBOW042/39.536311WRNB .-. -. -...

Airport Services

Parking: tiedowns
Airframe service: MAJOR
Powerplant service: MAJOR

Runway Information

Runway 4/22

Dimensions: 2568 x 100 ft. / 783 x 30 m
Surface: turf, in fair condition
Runway edge markings: YELLOW BUCKETS MARK RY ENDS AND EDGES.
RUNWAY 4  RUNWAY 22
Traffic pattern: leftleft
Obstructions: 60 ft. tree, 5 ft. from runway, 90 ft. right of centerline68 ft. tree, 140 ft. from runway, 102 ft. right of centerline, 2:1 slope to clear

Airport Operational Statistics

Aircraft based on the field: 24
Single engine airplanes: 12
Ultralights: 12
    
Aircraft operations: avg 33/day
92% local general aviation
8% transient general aviation

Additional Remarks

TREES EACH END RWY 04/22.
ULTRALGT ACTIVITY ON AND INVOF ARPT.

Instrument Procedures

There are no published instrument procedures at 3N7.

Some nearby airports with instrument procedures:

KWRI - Mc Guire Air Force Base (5 nm NE)
N73 - Red Lion Airport (5 nm SW)
N14 - Flying W Airport (6 nm SW)
KVAY - South Jersey Regional Airport (7 nm W)
N87 - Trenton-Robbinsville Airport (15 nm N)
 
Loc | Ops | Rwys | IFR | FBO | Links
Com | Nav | Svcs | Stats | Notes
 
Area around 3N7 (Pemberton Airport)
 
Road maps at: MapQuest MapPoint Yahoo! Maps Google Rand McNally
Topographic chart at: TopoZone
Satellite photo at: TerraServer Virtual Earth

 
Aerial photo
No photo
 
Airport distance calculator
Flying to Pemberton Airport? Find the distance to fly.

From to 3N7

Sunrise and sunset
Times for 26-Jun-2006
 Local
(UTC-4)
 Zulu
(UTC)
Morning civil twilight05:0009:00
Sunrise05:3309:33
Sunset20:3100:31
Evening civil twilight21:0301:03
 
METAR
KWRI 
5nm E 
261355Z 18007KT 6SM -RA SCT003 BKN010 OVC020 23/22 A3008 RMK SLP184 WR//
KVAY 
7nm SW 
ASOS 119.325 609-267-1176
261354Z AUTO VRB05KT 4SM -RA BR BKN018 OVC023 23/22 A3007 RMK AO2 RAB1259 SLP182 T02280217 $
KPNE 
16nm W 
261427Z AUTO 16007KT 10SM BKN009 OVC014 24/22 A3008
KNEL 
17nm E 
261355Z 17013G19KT 7SM BKN020 OVC070 24/21 A3009 RMK SLP188 T02390211
KMJX 
19nm E 
AWOS-3 119.875 732-244-4450
No observation available
KTTN 
19nm N 
ASOS 133.70 609-538-8690
261429Z 14007KT 2SM RA BR SCT006 OVC014 23/22 A3008 RMK AO2 P0017
TAF
KWRI 
5nm E 
261110 18009KT 9999 BKN006 BKN250 QNH3002INS
TEMPO 1114 8000 -SHRA
BECMG 1314 18012G18KT 9999 SCT006 BKN015 QNH3004INS
BECMG 1718 16015G20KT 9999 SCT006 SCT020 BKN250 QNH3003INS
BECMG 0405 16015G25KT 9999 OVC006 QNH3007INS T28/20Z T20/09Z AMD 1110
KPNE 
16nm W 
261136Z 261212 13006KT P6SM -SHRA OVC015
TEMPO 1215 4SM -SHRA OVC008
FM1500 16009KT P6SM SCT025 BKN250
TEMPO 1516 5SM HZ BKN025
FM1800 16011KT P6SM SCT030 BKN060 PROB30 2101 3SM -SHRA BR OVC015
KTTN 
19nm N 
ASOS 133.70 609-538-8690
261136Z 261212 13005KT P6SM -SHRA OVC007
TEMPO 1215 3SM SHRA SCT007 OVC012
FM1600 15009KT P6SM VCSH SCT025 BKN250
TEMPO 1618 5SM HZ BKN025
FM1800 16012KT P6SM SCT030 BKN060 PROB30 2101 3SM -SHRA BR OVC015
NOTAMs
Click for the latest NOTAMs
NOTAMs are issued by the DoD/FAA and will open in a separate window not controlled by AirNav.

 

 
 

Where to Stay: Hotels, Motels, Resorts, B&Bs, Campgrounds

 In this space we feature lodging establishments that are convenient to the Pemberton Airport. If your hotel/inn/B&B/resort is near the Pemberton Airport, provides convenient transportation, or is otherwise attractive to pilots, flight crews, and airport users, consider listing it here.  
Feature A Hotel
 

Hotels near Pemberton Airport

Miles Price ($)
BEST WESTERN BURLINGTON INN 5.5 94-109

Distances are approximate, and may vary depending on the actual route traveled and the location of the travel start on the airport.
    

Hotels in other cities near Pemberton Airport

1 in Wrightstown
1 in Mount Holly, PA
1 in Cookstown
15 in Mount Laurel
6 in Bordentown
2 in Bristol, PA
2 in Levittown, PA
1 in Cinnaminson
3 in Maple Shade
5 in Bensalem, PA
1 in Trenton
2 in Langhorne, PA
5 in Cherry Hill
3 in Trevose, PA
1 in Cherry Hill, PA
 

Would you like to see your business listed on this page?

 If your business provides an interesting product or service to pilots, flight crews, aircraft, or users of the Pemberton Airport, you should consider listing it here.  To start the listing process, click on the button below
 
Add a business
 

Other Pages about Pemberton Airport

Add a link
 
Copyright © AirNav, LLC. All rights reserved. Privacy Policy  Contact